sensor_id;sensor_type;location;lat;lon;timestamp;P1;durP1;ratioP1;P2;durP2;ratioP2
1276;SDS011;631;51.024;13.826;2022-12-18T00:01:31;71.18;;;43.50;;
1276;SDS011;631;51.024;13.826;2022-12-18T00:03:59;72.18;;;43.78;;
1276;SDS011;631;51.024;13.826;2022-12-18T00:06:26;74.15;;;47.63;;
1276;SDS011;631;51.024;13.826;2022-12-18T00:08:54;68.05;;;46.20;;
1276;SDS011;631;51.024;13.826;2022-12-18T00:11:21;66.35;;;44.88;;
1276;SDS011;631;51.024;13.826;2022-12-18T00:13:48;65.25;;;43.08;;
1276;SDS011;631;51.024;13.826;2022-12-18T00:16:18;59.90;;;42.00;;
1276;SDS011;631;51.024;13.826;2022-12-18T00:18:45;63.45;;;42.00;;
1276;SDS011;631;51.024;13.826;2022-12-18T00:21:12;63.22;;;42.90;;
1276;SDS011;631;51.024;13.826;2022-12-18T00:23:38;61.33;;;41.47;;
1276;SDS011;631;51.024;13.826;2022-12-18T00:26:07;62.20;;;43.45;;
1276;SDS011;631;51.024;13.826;2022-12-18T00:28:40;66.50;;;44.78;;
1276;SDS011;631;51.024;13.826;2022-12-18T00:31:07;60.65;;;41.55;;
1276;SDS011;631;51.024;13.826;2022-12-18T00:33:35;60.28;;;42.70;;
1276;SDS011;631;51.024;13.826;2022-12-18T00:36:06;61.88;;;43.45;;
1276;SDS011;631;51.024;13.826;2022-12-18T00:38:34;64.72;;;42.55;;
1276;SDS011;631;51.024;13.826;2022-12-18T00:41:00;68.45;;;42.55;;
1276;SDS011;631;51.024;13.826;2022-12-18T00:43:26;53.97;;;39.45;;
1276;SDS011;631;51.024;13.826;2022-12-18T00:45:52;57.60;;;41.40;;
1276;SDS011;631;51.024;13.826;2022-12-18T00:48:18;64.33;;;41.70;;
1276;SDS011;631;51.024;13.826;2022-12-18T00:50:44;56.20;;;37.83;;
1276;SDS011;631;51.024;13.826;2022-12-18T00:53:10;57.57;;;38.87;;
1276;SDS011;631;51.024;13.826;2022-12-18T00:55:39;59.92;;;37.92;;
1276;SDS011;631;51.024;13.826;2022-12-18T00:58:05;62.85;;;38.35;;
1276;SDS011;631;51.024;13.826;2022-12-18T01:00:30;54.20;;;37.87;;
1276;SDS011;631;51.024;13.826;2022-12-18T01:02:56;51.33;;;35.43;;
1276;SDS011;631;51.024;13.826;2022-12-18T01:05:22;47.27;;;34.63;;
1276;SDS011;631;51.024;13.826;2022-12-18T01:07:47;53.87;;;36.47;;
1276;SDS011;631;51.024;13.826;2022-12-18T01:10:13;52.23;;;36.07;;
1276;SDS011;631;51.024;13.826;2022-12-18T01:12:39;51.90;;;35.40;;
1276;SDS011;631;51.024;13.826;2022-12-18T01:15:05;51.20;;;34.93;;
1276;SDS011;631;51.024;13.826;2022-12-18T01:17:32;50.85;;;34.40;;
1276;SDS011;631;51.024;13.826;2022-12-18T01:19:58;47.95;;;33.08;;
1276;SDS011;631;51.024;13.826;2022-12-18T01:22:23;42.63;;;31.00;;
1276;SDS011;631;51.024;13.826;2022-12-18T01:24:49;45.40;;;32.70;;
1276;SDS011;631;51.024;13.826;2022-12-18T01:27:15;51.03;;;34.37;;
1276;SDS011;631;51.024;13.826;2022-12-18T01:29:41;43.10;;;32.27;;
1276;SDS011;631;51.024;13.826;2022-12-18T01:32:07;50.65;;;33.90;;
1276;SDS011;631;51.024;13.826;2022-12-18T01:34:34;44.78;;;31.15;;
1276;SDS011;631;51.024;13.826;2022-12-18T01:37:02;39.80;;;31.02;;
1276;SDS011;631;51.024;13.826;2022-12-18T01:39:28;42.30;;;28.50;;
1276;SDS011;631;51.024;13.826;2022-12-18T01:41:54;45.20;;;30.90;;
1276;SDS011;631;51.024;13.826;2022-12-18T01:44:50;41.80;;;30.63;;
1276;SDS011;631;51.024;13.826;2022-12-18T01:49:55;45.03;;;28.00;;
1276;SDS011;631;51.024;13.826;2022-12-18T01:52:22;35.95;;;28.83;;
1276;SDS011;631;51.024;13.826;2022-12-18T01:54:51;37.30;;;27.90;;
1276;SDS011;631;51.024;13.826;2022-12-18T01:57:18;42.75;;;30.27;;
1276;SDS011;631;51.024;13.826;2022-12-18T01:59:45;34.83;;;26.88;;
1276;SDS011;631;51.024;13.826;2022-12-18T02:02:17;33.28;;;26.33;;
1276;SDS011;631;51.024;13.826;2022-12-18T02:04:44;29.52;;;25.20;;
1276;SDS011;631;51.024;13.826;2022-12-18T02:09:50;28.90;;;23.65;;
1276;SDS011;631;51.024;13.826;2022-12-18T02:12:24;33.55;;;25.17;;
1276;SDS011;631;51.024;13.826;2022-12-18T02:15:03;29.83;;;23.85;;
1276;SDS011;631;51.024;13.826;2022-12-18T02:17:39;29.98;;;23.20;;
1276;SDS011;631;51.024;13.826;2022-12-18T02:20:47;32.33;;;23.55;;
1276;SDS011;631;51.024;13.826;2022-12-18T02:28:50;27.30;;;23.30;;
1276;SDS011;631;51.024;13.826;2022-12-18T02:31:21;29.10;;;22.70;;
1276;SDS011;631;51.024;13.826;2022-12-18T02:33:53;28.30;;;22.42;;
1276;SDS011;631;51.024;13.826;2022-12-18T02:36:21;28.40;;;22.58;;
1276;SDS011;631;51.024;13.826;2022-12-18T02:38:48;26.13;;;21.98;;
1276;SDS011;631;51.024;13.826;2022-12-18T02:41:17;29.27;;;22.70;;
1276;SDS011;631;51.024;13.826;2022-12-18T02:43:47;27.75;;;23.00;;
1276;SDS011;631;51.024;13.826;2022-12-18T02:46:26;31.60;;;26.00;;
1276;SDS011;631;51.024;13.826;2022-12-18T02:49:01;26.00;;;22.52;;
1276;SDS011;631;51.024;13.826;2022-12-18T02:51:54;30.27;;;23.15;;
1276;SDS011;631;51.024;13.826;2022-12-18T02:56:58;27.17;;;21.98;;
1276;SDS011;631;51.024;13.826;2022-12-18T02:59:49;27.58;;;21.90;;
1276;SDS011;631;51.024;13.826;2022-12-18T03:02:53;29.10;;;22.88;;
1276;SDS011;631;51.024;13.826;2022-12-18T03:05:47;28.90;;;22.13;;
1276;SDS011;631;51.024;13.826;2022-12-18T03:08:51;28.38;;;22.45;;
1276;SDS011;631;51.024;13.826;2022-12-18T03:11:12;23.70;;;21.20;;
1276;SDS011;631;51.024;13.826;2022-12-18T03:13:55;23.42;;;20.50;;
1276;SDS011;631;51.024;13.826;2022-12-18T03:16:46;25.95;;;21.55;;
1276;SDS011;631;51.024;13.826;2022-12-18T03:19:16;25.95;;;20.02;;
1276;SDS011;631;51.024;13.826;2022-12-18T03:21:47;23.27;;;19.52;;
1276;SDS011;631;51.024;13.826;2022-12-18T03:24:17;27.85;;;19.90;;
1276;SDS011;631;51.024;13.826;2022-12-18T03:26:46;22.35;;;19.45;;
1276;SDS011;631;51.024;13.826;2022-12-18T03:29:32;25.05;;;20.30;;
1276;SDS011;631;51.024;13.826;2022-12-18T03:32:04;23.02;;;18.55;;
1276;SDS011;631;51.024;13.826;2022-12-18T03:34:35;22.33;;;18.98;;
1276;SDS011;631;51.024;13.826;2022-12-18T03:37:05;23.50;;;19.13;;
1276;SDS011;631;51.024;13.826;2022-12-18T03:39:31;19.85;;;17.75;;
1276;SDS011;631;51.024;13.826;2022-12-18T03:42:04;22.02;;;18.33;;
1276;SDS011;631;51.024;13.826;2022-12-18T03:44:40;20.67;;;18.58;;
1276;SDS011;631;51.024;13.826;2022-12-18T03:52:30;20.52;;;18.42;;
1276;SDS011;631;51.024;13.826;2022-12-18T03:55:11;21.92;;;18.70;;
1276;SDS011;631;51.024;13.826;2022-12-18T03:57:37;24.70;;;18.98;;
1276;SDS011;631;51.024;13.826;2022-12-18T04:00:22;23.35;;;19.80;;
1276;SDS011;631;51.024;13.826;2022-12-18T04:02:48;22.05;;;19.45;;
1276;SDS011;631;51.024;13.826;2022-12-18T04:05:18;25.77;;;19.10;;
1276;SDS011;631;51.024;13.826;2022-12-18T04:07:45;25.15;;;19.50;;
1276;SDS011;631;51.024;13.826;2022-12-18T04:10:13;20.73;;;18.48;;
1276;SDS011;631;51.024;13.826;2022-12-18T04:12:40;21.30;;;19.00;;
1276;SDS011;631;51.024;13.826;2022-12-18T04:15:06;21.03;;;18.73;;
1276;SDS011;631;51.024;13.826;2022-12-18T04:17:33;22.30;;;17.52;;
1276;SDS011;631;51.024;13.826;2022-12-18T04:19:58;23.40;;;19.20;;
1276;SDS011;631;51.024;13.826;2022-12-18T04:22:24;23.63;;;18.97;;
1276;SDS011;631;51.024;13.826;2022-12-18T04:24:50;20.60;;;17.80;;
1276;SDS011;631;51.024;13.826;2022-12-18T04:27:15;19.87;;;17.67;;
1276;SDS011;631;51.024;13.826;2022-12-18T04:29:41;21.20;;;19.03;;
1276;SDS011;631;51.024;13.826;2022-12-18T04:32:06;18.30;;;16.50;;
1276;SDS011;631;51.024;13.826;2022-12-18T04:34:33;22.10;;;18.70;;
1276;SDS011;631;51.024;13.826;2022-12-18T04:36:58;20.73;;;18.30;;
1276;SDS011;631;51.024;13.826;2022-12-18T04:39:24;20.40;;;18.20;;
1276;SDS011;631;51.024;13.826;2022-12-18T04:41:49;20.30;;;16.60;;
1276;SDS011;631;51.024;13.826;2022-12-18T04:44:15;20.70;;;18.50;;
1276;SDS011;631;51.024;13.826;2022-12-18T04:46:41;20.70;;;17.37;;
1276;SDS011;631;51.024;13.826;2022-12-18T04:49:06;19.93;;;17.83;;
1276;SDS011;631;51.024;13.826;2022-12-18T04:51:32;18.73;;;16.67;;
1276;SDS011;631;51.024;13.826;2022-12-18T04:53:58;20.00;;;18.10;;
1276;SDS011;631;51.024;13.826;2022-12-18T04:56:23;18.97;;;17.10;;
1276;SDS011;631;51.024;13.826;2022-12-18T04:58:49;19.17;;;17.10;;
1276;SDS011;631;51.024;13.826;2022-12-18T05:01:15;18.57;;;16.83;;
1276;SDS011;631;51.024;13.826;2022-12-18T05:03:42;18.95;;;16.90;;
1276;SDS011;631;51.024;13.826;2022-12-18T05:06:07;19.50;;;17.50;;
1276;SDS011;631;51.024;13.826;2022-12-18T05:08:34;18.48;;;16.52;;
1276;SDS011;631;51.024;13.826;2022-12-18T05:11:01;18.30;;;16.30;;
1276;SDS011;631;51.024;13.826;2022-12-18T05:13:28;19.67;;;17.58;;
1276;SDS011;631;51.024;13.826;2022-12-18T05:15:54;18.38;;;16.58;;
1276;SDS011;631;51.024;13.826;2022-12-18T05:18:21;17.80;;;16.00;;
1276;SDS011;631;51.024;13.826;2022-12-18T05:20:51;18.63;;;16.55;;
1276;SDS011;631;51.024;13.826;2022-12-18T05:23:18;18.90;;;17.15;;
1276;SDS011;631;51.024;13.826;2022-12-18T05:26:17;18.42;;;16.30;;
1276;SDS011;631;51.024;13.826;2022-12-18T05:28:39;18.67;;;16.90;;
1276;SDS011;631;51.024;13.826;2022-12-18T05:31:05;19.63;;;17.20;;
1276;SDS011;631;51.024;13.826;2022-12-18T05:33:31;19.10;;;17.20;;
1276;SDS011;631;51.024;13.826;2022-12-18T05:35:58;19.55;;;17.40;;
1276;SDS011;631;51.024;13.826;2022-12-18T05:38:26;19.27;;;17.23;;
1276;SDS011;631;51.024;13.826;2022-12-18T05:40:53;19.38;;;16.20;;
1276;SDS011;631;51.024;13.826;2022-12-18T05:43:19;20.52;;;17.70;;
1276;SDS011;631;51.024;13.826;2022-12-18T05:45:46;19.30;;;17.50;;
1276;SDS011;631;51.024;13.826;2022-12-18T05:48:12;18.88;;;16.92;;
1276;SDS011;631;51.024;13.826;2022-12-18T05:50:39;22.93;;;17.60;;
1276;SDS011;631;51.024;13.826;2022-12-18T05:53:06;17.55;;;15.90;;
1276;SDS011;631;51.024;13.826;2022-12-18T05:55:35;20.27;;;16.92;;
1276;SDS011;631;51.024;13.826;2022-12-18T05:58:01;19.35;;;17.35;;
1276;SDS011;631;51.024;13.826;2022-12-18T06:00:28;20.95;;;18.20;;
1276;SDS011;631;51.024;13.826;2022-12-18T06:02:53;19.20;;;17.40;;
1276;SDS011;631;51.024;13.826;2022-12-18T06:05:19;19.50;;;16.87;;
1276;SDS011;631;51.024;13.826;2022-12-18T06:07:44;18.67;;;16.77;;
1276;SDS011;631;51.024;13.826;2022-12-18T06:10:10;19.50;;;17.50;;
1276;SDS011;631;51.024;13.826;2022-12-18T06:12:36;19.65;;;17.80;;
1276;SDS011;631;51.024;13.826;2022-12-18T06:15:02;19.40;;;17.30;;
1276;SDS011;631;51.024;13.826;2022-12-18T06:17:32;19.17;;;17.17;;
1276;SDS011;631;51.024;13.826;2022-12-18T06:19:58;20.80;;;17.45;;
1276;SDS011;631;51.024;13.826;2022-12-18T06:22:24;20.23;;;16.90;;
1276;SDS011;631;51.024;13.826;2022-12-18T06:24:49;18.17;;;16.10;;
1276;SDS011;631;51.024;13.826;2022-12-18T06:27:15;21.20;;;17.73;;
1276;SDS011;631;51.024;13.826;2022-12-18T06:29:41;18.00;;;16.20;;
1276;SDS011;631;51.024;13.826;2022-12-18T06:32:07;19.47;;;17.57;;
1276;SDS011;631;51.024;13.826;2022-12-18T06:34:33;19.93;;;16.67;;
1276;SDS011;631;51.024;13.826;2022-12-18T06:36:58;18.85;;;16.80;;
1276;SDS011;631;51.024;13.826;2022-12-18T06:39:26;21.23;;;19.00;;
1276;SDS011;631;51.024;13.826;2022-12-18T06:41:52;20.90;;;18.70;;
1276;SDS011;631;51.024;13.826;2022-12-18T06:44:18;19.50;;;17.60;;
1276;SDS011;631;51.024;13.826;2022-12-18T06:46:44;21.33;;;18.42;;
1276;SDS011;631;51.024;13.826;2022-12-18T06:49:10;19.87;;;17.90;;
1276;SDS011;631;51.024;13.826;2022-12-18T06:51:35;19.53;;;17.57;;
1276;SDS011;631;51.024;13.826;2022-12-18T06:54:01;19.50;;;17.50;;
1276;SDS011;631;51.024;13.826;2022-12-18T06:56:27;20.20;;;17.93;;
1276;SDS011;631;51.024;13.826;2022-12-18T06:58:53;18.13;;;16.40;;
1276;SDS011;631;51.024;13.826;2022-12-18T07:01:19;21.08;;;18.80;;
1276;SDS011;631;51.024;13.826;2022-12-18T07:03:45;20.13;;;15.98;;
1276;SDS011;631;51.024;13.826;2022-12-18T07:06:15;25.30;;;17.83;;
1276;SDS011;631;51.024;13.826;2022-12-18T07:08:42;19.27;;;16.55;;
1276;SDS011;631;51.024;13.826;2022-12-18T07:11:08;20.60;;;18.42;;
1276;SDS011;631;51.024;13.826;2022-12-18T07:13:34;23.37;;;18.47;;
1276;SDS011;631;51.024;13.826;2022-12-18T07:16:06;21.43;;;18.63;;
1276;SDS011;631;51.024;13.826;2022-12-18T07:18:34;22.95;;;20.38;;
1276;SDS011;631;51.024;13.826;2022-12-18T07:21:03;23.57;;;20.97;;
1276;SDS011;631;51.024;13.826;2022-12-18T07:23:31;23.17;;;20.40;;
1276;SDS011;631;51.024;13.826;2022-12-18T07:26:00;22.02;;;19.65;;
1276;SDS011;631;51.024;13.826;2022-12-18T07:28:27;21.40;;;19.00;;
1276;SDS011;631;51.024;13.826;2022-12-18T07:30:52;25.03;;;19.67;;
1276;SDS011;631;51.024;13.826;2022-12-18T07:33:18;22.73;;;19.53;;
1276;SDS011;631;51.024;13.826;2022-12-18T07:35:44;23.37;;;19.07;;
1276;SDS011;631;51.024;13.826;2022-12-18T07:38:09;27.30;;;20.73;;
1276;SDS011;631;51.024;13.826;2022-12-18T07:40:35;29.27;;;21.80;;
1276;SDS011;631;51.024;13.826;2022-12-18T07:43:01;22.00;;;19.77;;
1276;SDS011;631;51.024;13.826;2022-12-18T07:45:26;21.53;;;19.27;;
1276;SDS011;631;51.024;13.826;2022-12-18T07:47:52;25.33;;;22.00;;
1276;SDS011;631;51.024;13.826;2022-12-18T07:50:17;23.57;;;21.07;;
1276;SDS011;631;51.024;13.826;2022-12-18T07:52:43;22.57;;;20.17;;
1276;SDS011;631;51.024;13.826;2022-12-18T07:55:09;22.03;;;19.60;;
1276;SDS011;631;51.024;13.826;2022-12-18T07:57:34;23.63;;;20.53;;
1276;SDS011;631;51.024;13.826;2022-12-18T08:00:00;24.73;;;21.40;;
1276;SDS011;631;51.024;13.826;2022-12-18T08:02:26;31.00;;;21.97;;
1276;SDS011;631;51.024;13.826;2022-12-18T08:04:51;28.37;;;22.97;;
1276;SDS011;631;51.024;13.826;2022-12-18T08:07:17;27.67;;;20.47;;
1276;SDS011;631;51.024;13.826;2022-12-18T08:09:42;25.90;;;21.17;;
1276;SDS011;631;51.024;13.826;2022-12-18T08:12:08;28.17;;;23.30;;
1276;SDS011;631;51.024;13.826;2022-12-18T08:14:33;34.87;;;24.57;;
1276;SDS011;631;51.024;13.826;2022-12-18T08:16:59;28.60;;;24.70;;
1276;SDS011;631;51.024;13.826;2022-12-18T08:19:24;29.30;;;24.20;;
1276;SDS011;631;51.024;13.826;2022-12-18T08:21:50;29.27;;;24.80;;
1276;SDS011;631;51.024;13.826;2022-12-18T08:24:16;33.50;;;26.60;;
1276;SDS011;631;51.024;13.826;2022-12-18T08:26:41;29.63;;;24.67;;
1276;SDS011;631;51.024;13.826;2022-12-18T08:29:08;31.77;;;26.30;;
1276;SDS011;631;51.024;13.826;2022-12-18T08:31:33;30.63;;;26.95;;
1276;SDS011;631;51.024;13.826;2022-12-18T08:33:59;29.67;;;26.50;;
1276;SDS011;631;51.024;13.826;2022-12-18T08:36:25;29.73;;;25.07;;
1276;SDS011;631;51.024;13.826;2022-12-18T08:38:51;30.88;;;25.60;;
1276;SDS011;631;51.024;13.826;2022-12-18T08:41:17;30.40;;;25.40;;
1276;SDS011;631;51.024;13.826;2022-12-18T08:43:43;29.30;;;24.80;;
1276;SDS011;631;51.024;13.826;2022-12-18T08:46:30;27.40;;;24.17;;
1276;SDS011;631;51.024;13.826;2022-12-18T08:48:58;34.40;;;26.55;;
1276;SDS011;631;51.024;13.826;2022-12-18T08:51:24;28.17;;;25.17;;
1276;SDS011;631;51.024;13.826;2022-12-18T08:53:50;30.93;;;25.77;;
1276;SDS011;631;51.024;13.826;2022-12-18T08:56:15;31.70;;;26.20;;
1276;SDS011;631;51.024;13.826;2022-12-18T08:58:42;32.40;;;25.43;;
1276;SDS011;631;51.024;13.826;2022-12-18T09:01:08;29.90;;;23.70;;
1276;SDS011;631;51.024;13.826;2022-12-18T09:03:35;28.35;;;23.40;;
1276;SDS011;631;51.024;13.826;2022-12-18T09:06:01;30.77;;;24.77;;
1276;SDS011;631;51.024;13.826;2022-12-18T09:08:27;28.52;;;24.15;;
1276;SDS011;631;51.024;13.826;2022-12-18T09:10:53;32.70;;;25.38;;
1276;SDS011;631;51.024;13.826;2022-12-18T09:13:19;29.52;;;24.88;;
1276;SDS011;631;51.024;13.826;2022-12-18T09:15:45;29.17;;;25.47;;
1276;SDS011;631;51.024;13.826;2022-12-18T09:18:14;30.35;;;25.13;;
1276;SDS011;631;51.024;13.826;2022-12-18T09:20:41;29.10;;;24.75;;
1276;SDS011;631;51.024;13.826;2022-12-18T09:23:06;29.67;;;25.07;;
1276;SDS011;631;51.024;13.826;2022-12-18T09:25:33;27.70;;;24.70;;
1276;SDS011;631;51.024;13.826;2022-12-18T09:28:01;27.77;;;24.48;;
1276;SDS011;631;51.024;13.826;2022-12-18T09:30:28;33.00;;;25.30;;
1276;SDS011;631;51.024;13.826;2022-12-18T09:32:53;29.50;;;25.53;;
1276;SDS011;631;51.024;13.826;2022-12-18T09:35:19;34.23;;;25.93;;
1276;SDS011;631;51.024;13.826;2022-12-18T09:37:44;27.30;;;24.20;;
1276;SDS011;631;51.024;13.826;2022-12-18T09:40:14;27.50;;;24.37;;
1276;SDS011;631;51.024;13.826;2022-12-18T09:42:43;34.42;;;24.15;;
1276;SDS011;631;51.024;13.826;2022-12-18T09:45:13;29.92;;;24.33;;
1276;SDS011;631;51.024;13.826;2022-12-18T09:47:41;27.58;;;24.67;;
1276;SDS011;631;51.024;13.826;2022-12-18T09:52:51;28.85;;;24.77;;
1276;SDS011;631;51.024;13.826;2022-12-18T10:00:34;29.80;;;25.10;;
1276;SDS011;631;51.024;13.826;2022-12-18T10:03:08;28.30;;;24.77;;
1276;SDS011;631;51.024;13.826;2022-12-18T10:08:14;29.60;;;24.33;;
1276;SDS011;631;51.024;13.826;2022-12-18T10:18:59;28.10;;;24.83;;
1276;SDS011;631;51.024;13.826;2022-12-18T10:21:51;27.60;;;24.70;;
1276;SDS011;631;51.024;13.826;2022-12-18T10:24:23;27.52;;;24.60;;
1276;SDS011;631;51.024;13.826;2022-12-18T10:27:15;29.85;;;24.92;;
1276;SDS011;631;51.024;13.826;2022-12-18T10:29:45;28.35;;;24.38;;
1276;SDS011;631;51.024;13.826;2022-12-18T10:32:15;28.77;;;24.52;;
1276;SDS011;631;51.024;13.826;2022-12-18T10:34:49;29.67;;;26.50;;
1276;SDS011;631;51.024;13.826;2022-12-18T10:37:17;31.55;;;24.30;;
1276;SDS011;631;51.024;13.826;2022-12-18T10:42:37;27.80;;;24.77;;
1276;SDS011;631;51.024;13.826;2022-12-18T10:47:35;27.52;;;24.38;;
1276;SDS011;631;51.024;13.826;2022-12-18T10:50:02;29.33;;;26.13;;
1276;SDS011;631;51.024;13.826;2022-12-18T10:52:28;27.70;;;24.70;;
1276;SDS011;631;51.024;13.826;2022-12-18T10:55:01;29.87;;;24.67;;
1276;SDS011;631;51.024;13.826;2022-12-18T10:57:36;30.33;;;24.70;;
1276;SDS011;631;51.024;13.826;2022-12-18T11:02:51;25.90;;;23.25;;
1276;SDS011;631;51.024;13.826;2022-12-18T11:05:24;28.80;;;24.57;;
1276;SDS011;631;51.024;13.826;2022-12-18T11:07:52;27.60;;;24.40;;
1276;SDS011;631;51.024;13.826;2022-12-18T11:10:29;28.58;;;24.23;;
1276;SDS011;631;51.024;13.826;2022-12-18T11:12:56;27.15;;;24.33;;
1276;SDS011;631;51.024;13.826;2022-12-18T11:15:33;26.48;;;23.63;;
1276;SDS011;631;51.024;13.826;2022-12-18T11:17:59;31.93;;;24.80;;
1276;SDS011;631;51.024;13.826;2022-12-18T11:20:31;30.30;;;24.87;;
1276;SDS011;631;51.024;13.826;2022-12-18T11:23:00;30.23;;;25.23;;
1276;SDS011;631;51.024;13.826;2022-12-18T11:25:28;27.80;;;24.17;;
1276;SDS011;631;51.024;13.826;2022-12-18T11:27:56;28.10;;;24.48;;
1276;SDS011;631;51.024;13.826;2022-12-18T11:30:27;28.60;;;25.17;;
1276;SDS011;631;51.024;13.826;2022-12-18T11:35:34;28.13;;;24.63;;
1276;SDS011;631;51.024;13.826;2022-12-18T11:38:35;30.83;;;25.40;;
1276;SDS011;631;51.024;13.826;2022-12-18T11:44:13;31.15;;;24.45;;
1276;SDS011;631;51.024;13.826;2022-12-18T11:46:34;27.30;;;23.20;;
1276;SDS011;631;51.024;13.826;2022-12-18T11:49:10;27.03;;;24.03;;
1276;SDS011;631;51.024;13.826;2022-12-18T11:51:48;26.80;;;23.50;;
1276;SDS011;631;51.024;13.826;2022-12-18T11:54:18;27.83;;;24.10;;
1276;SDS011;631;51.024;13.826;2022-12-18T11:56:46;28.13;;;25.03;;
1276;SDS011;631;51.024;13.826;2022-12-18T12:01:57;29.40;;;23.63;;
1276;SDS011;631;51.024;13.826;2022-12-18T12:04:46;25.90;;;23.15;;
1276;SDS011;631;51.024;13.826;2022-12-18T12:13:01;27.40;;;23.97;;
1276;SDS011;631;51.024;13.826;2022-12-18T12:15:59;27.70;;;24.70;;
1276;SDS011;631;51.024;13.826;2022-12-18T12:19:05;25.75;;;22.50;;
1276;SDS011;631;51.024;13.826;2022-12-18T12:22:14;31.37;;;23.83;;
1276;SDS011;631;51.024;13.826;2022-12-18T12:30:06;28.00;;;25.00;;
1276;SDS011;631;51.024;13.826;2022-12-18T12:38:19;27.38;;;23.65;;
1276;SDS011;631;51.024;13.826;2022-12-18T12:41:05;27.27;;;24.38;;
1276;SDS011;631;51.024;13.826;2022-12-18T12:43:55;28.15;;;24.50;;
1276;SDS011;631;51.024;13.826;2022-12-18T12:46:23;26.45;;;23.63;;
1276;SDS011;631;51.024;13.826;2022-12-18T12:48:52;26.70;;;23.92;;
1276;SDS011;631;51.024;13.826;2022-12-18T12:51:27;26.52;;;23.23;;
1276;SDS011;631;51.024;13.826;2022-12-18T12:53:57;25.58;;;22.83;;
1276;SDS011;631;51.024;13.826;2022-12-18T12:56:24;26.65;;;23.80;;
1276;SDS011;631;51.024;13.826;2022-12-18T12:58:57;26.52;;;23.38;;
1276;SDS011;631;51.024;13.826;2022-12-18T13:04:35;26.77;;;23.20;;
1276;SDS011;631;51.024;13.826;2022-12-18T13:07:14;30.45;;;24.52;;
1276;SDS011;631;51.024;13.826;2022-12-18T13:33:53;29.98;;;24.10;;
1276;SDS011;631;51.024;13.826;2022-12-18T13:36:34;28.70;;;24.08;;
1276;SDS011;631;51.024;13.826;2022-12-18T13:41:38;30.05;;;23.23;;
1276;SDS011;631;51.024;13.826;2022-12-18T13:47:04;29.23;;;22.20;;
1276;SDS011;631;51.024;13.826;2022-12-18T13:54:43;28.77;;;22.15;;
1276;SDS011;631;51.024;13.826;2022-12-18T14:00:23;27.42;;;21.67;;
1276;SDS011;631;51.024;13.826;2022-12-18T14:02:49;21.33;;;18.90;;
1276;SDS011;631;51.024;13.826;2022-12-18T14:05:26;22.63;;;20.15;;
1276;SDS011;631;51.024;13.826;2022-12-18T14:07:52;24.27;;;20.27;;
1276;SDS011;631;51.024;13.826;2022-12-18T14:10:19;23.27;;;20.05;;
1276;SDS011;631;51.024;13.826;2022-12-18T14:12:47;24.17;;;20.35;;
1276;SDS011;631;51.024;13.826;2022-12-18T14:17:52;22.85;;;19.27;;
1276;SDS011;631;51.024;13.826;2022-12-18T14:20:28;21.50;;;19.13;;
1276;SDS011;631;51.024;13.826;2022-12-18T14:22:57;25.23;;;21.25;;
1276;SDS011;631;51.024;13.826;2022-12-18T14:25:27;28.58;;;22.55;;
1276;SDS011;631;51.024;13.826;2022-12-18T14:28:10;24.83;;;19.88;;
1276;SDS011;631;51.024;13.826;2022-12-18T14:30:40;25.23;;;21.23;;
1276;SDS011;631;51.024;13.826;2022-12-18T14:33:13;24.90;;;20.75;;
1276;SDS011;631;51.024;13.826;2022-12-18T14:35:52;24.20;;;20.90;;
1276;SDS011;631;51.024;13.826;2022-12-18T14:38:29;23.98;;;20.08;;
1276;SDS011;631;51.024;13.826;2022-12-18T14:40:56;25.13;;;21.10;;
1276;SDS011;631;51.024;13.826;2022-12-18T14:43:32;27.05;;;21.13;;
1276;SDS011;631;51.024;13.826;2022-12-18T14:46:02;25.90;;;21.42;;
1276;SDS011;631;51.024;13.826;2022-12-18T14:51:02;27.25;;;20.50;;
1276;SDS011;631;51.024;13.826;2022-12-18T14:53:40;24.35;;;21.08;;
1276;SDS011;631;51.024;13.826;2022-12-18T14:56:15;31.20;;;21.52;;
1276;SDS011;631;51.024;13.826;2022-12-18T14:58:48;28.40;;;21.05;;
1276;SDS011;631;51.024;13.826;2022-12-18T15:01:20;28.20;;;22.05;;
1276;SDS011;631;51.024;13.826;2022-12-18T15:03:48;30.60;;;22.33;;
1276;SDS011;631;51.024;13.826;2022-12-18T15:06:16;29.80;;;23.65;;
1276;SDS011;631;51.024;13.826;2022-12-18T15:08:52;30.00;;;22.50;;
1276;SDS011;631;51.024;13.826;2022-12-18T15:14:24;27.33;;;21.25;;
1276;SDS011;631;51.024;13.826;2022-12-18T15:17:05;36.90;;;24.08;;
1276;SDS011;631;51.024;13.826;2022-12-18T15:19:40;25.92;;;21.42;;
1276;SDS011;631;51.024;13.826;2022-12-18T15:22:27;28.42;;;23.23;;
1276;SDS011;631;51.024;13.826;2022-12-18T15:24:55;29.42;;;24.85;;
1276;SDS011;631;51.024;13.826;2022-12-18T15:27:33;28.02;;;22.48;;
1276;SDS011;631;51.024;13.826;2022-12-18T15:32:35;28.27;;;23.17;;
1276;SDS011;631;51.024;13.826;2022-12-18T15:35:23;53.35;;;47.25;;
1276;SDS011;631;51.024;13.826;2022-12-18T15:37:50;29.13;;;23.92;;
1276;SDS011;631;51.024;13.826;2022-12-18T15:40:20;30.13;;;21.65;;
1276;SDS011;631;51.024;13.826;2022-12-18T15:42:50;32.17;;;23.48;;
1276;SDS011;631;51.024;13.826;2022-12-18T15:45:37;27.38;;;23.05;;
1276;SDS011;631;51.024;13.826;2022-12-18T15:48:18;27.10;;;22.20;;
1276;SDS011;631;51.024;13.826;2022-12-18T15:50:46;26.77;;;23.50;;
1276;SDS011;631;51.024;13.826;2022-12-18T15:53:12;34.10;;;23.20;;
1276;SDS011;631;51.024;13.826;2022-12-18T15:55:37;32.43;;;23.27;;
1276;SDS011;631;51.024;13.826;2022-12-18T15:58:21;31.75;;;23.60;;
1276;SDS011;631;51.024;13.826;2022-12-18T16:00:47;33.53;;;23.07;;
1276;SDS011;631;51.024;13.826;2022-12-18T16:03:13;33.93;;;24.40;;
1276;SDS011;631;51.024;13.826;2022-12-18T16:05:38;33.10;;;24.90;;
1276;SDS011;631;51.024;13.826;2022-12-18T16:08:04;34.77;;;25.30;;
1276;SDS011;631;51.024;13.826;2022-12-18T16:10:29;31.27;;;24.90;;
1276;SDS011;631;51.024;13.826;2022-12-18T16:12:55;34.40;;;24.33;;
1276;SDS011;631;51.024;13.826;2022-12-18T16:15:21;32.97;;;24.10;;
1276;SDS011;631;51.024;13.826;2022-12-18T16:17:46;29.83;;;23.13;;
1276;SDS011;631;51.024;13.826;2022-12-18T16:20:14;30.00;;;22.70;;
1276;SDS011;631;51.024;13.826;2022-12-18T16:22:41;29.27;;;23.90;;
1276;SDS011;631;51.024;13.826;2022-12-18T16:25:15;32.20;;;23.27;;
1276;SDS011;631;51.024;13.826;2022-12-18T16:27:46;29.83;;;22.30;;
1276;SDS011;631;51.024;13.826;2022-12-18T16:30:16;29.92;;;23.27;;
1276;SDS011;631;51.024;13.826;2022-12-18T16:32:44;28.95;;;23.50;;
1276;SDS011;631;51.024;13.826;2022-12-18T16:35:11;37.28;;;25.67;;
1276;SDS011;631;51.024;13.826;2022-12-18T16:37:38;34.97;;;24.25;;
1276;SDS011;631;51.024;13.826;2022-12-18T16:40:04;34.75;;;26.17;;
1276;SDS011;631;51.024;13.826;2022-12-18T16:42:33;30.73;;;24.08;;
1276;SDS011;631;51.024;13.826;2022-12-18T16:44:59;29.40;;;23.92;;
1276;SDS011;631;51.024;13.826;2022-12-18T16:47:25;32.20;;;22.40;;
1276;SDS011;631;51.024;13.826;2022-12-18T16:49:51;32.37;;;24.50;;
1276;SDS011;631;51.024;13.826;2022-12-18T16:52:17;32.00;;;24.58;;
1276;SDS011;631;51.024;13.826;2022-12-18T16:54:43;34.42;;;25.50;;
1276;SDS011;631;51.024;13.826;2022-12-18T16:57:14;28.70;;;23.93;;
1276;SDS011;631;51.024;13.826;2022-12-18T16:59:42;31.25;;;23.50;;
1276;SDS011;631;51.024;13.826;2022-12-18T17:02:29;32.87;;;24.50;;
1276;SDS011;631;51.024;13.826;2022-12-18T17:04:54;30.17;;;23.00;;
1276;SDS011;631;51.024;13.826;2022-12-18T17:07:21;29.83;;;23.05;;